createdAt,value
2024-02-29T00:02:17.545Z,5.50
2024-02-29T00:04:44.656Z,5.50
2024-02-29T00:07:11.573Z,5.50
2024-02-29T00:09:39.976Z,5.60
2024-02-29T00:12:07.039Z,5.60
2024-02-29T00:14:33.864Z,5.60
2024-02-29T00:17:02.046Z,5.60
2024-02-29T00:19:29.371Z,5.60
2024-02-29T00:21:56.598Z,5.60
2024-02-29T00:24:23.627Z,5.60
2024-02-29T00:26:50.577Z,5.60
2024-02-29T00:29:17.467Z,5.60
2024-02-29T00:31:45.119Z,5.70
2024-02-29T00:34:15.255Z,5.60
2024-02-29T00:36:42.395Z,5.60
2024-02-29T00:39:14.704Z,5.60
2024-02-29T00:41:42.636Z,5.60
2024-02-29T00:44:10.532Z,5.60
2024-02-29T00:46:40.708Z,5.50
2024-02-29T00:49:07.702Z,5.60
2024-02-29T00:51:34.673Z,5.60
2024-02-29T00:54:01.556Z,5.60
2024-02-29T00:56:28.408Z,5.60
2024-02-29T00:58:55.252Z,5.60
2024-02-29T01:01:22.194Z,5.60
2024-02-29T01:03:49.130Z,5.50
2024-02-29T01:06:17.063Z,5.50
2024-02-29T01:08:43.850Z,5.50
2024-02-29T01:11:10.713Z,5.50
2024-02-29T01:13:37.595Z,5.50
2024-02-29T01:16:04.762Z,5.50
2024-02-29T01:18:31.727Z,5.60
2024-02-29T01:20:58.595Z,5.50
2024-02-29T01:23:25.409Z,5.50
2024-02-29T01:25:52.202Z,5.50
2024-02-29T01:28:19.035Z,5.40
2024-02-29T01:30:46.102Z,5.40
2024-02-29T01:33:12.955Z,5.40
2024-02-29T01:35:39.893Z,5.40
2024-02-29T01:38:06.835Z,5.40
2024-02-29T01:40:33.646Z,5.40
2024-02-29T01:43:00.529Z,5.40
2024-02-29T02:17:56.801Z,4.90
2024-02-29T02:20:24.953Z,4.90
2024-02-29T02:22:51.773Z,4.80
2024-02-29T02:25:18.625Z,4.80
2024-02-29T02:27:45.525Z,4.90
2024-02-29T02:30:12.631Z,4.90
2024-02-29T02:32:40.667Z,4.90
2024-02-29T02:35:07.925Z,4.90
2024-02-29T02:37:36.074Z,4.90
2024-02-29T02:40:06.035Z,4.90
2024-02-29T02:42:33.309Z,4.90
2024-02-29T02:45:00.150Z,4.90
2024-02-29T02:47:27.059Z,4.90
2024-02-29T02:49:53.895Z,4.90
2024-02-29T02:52:20.753Z,4.90
2024-02-29T02:54:47.677Z,4.90
2024-02-29T02:57:14.536Z,4.90
2024-02-29T02:59:41.330Z,4.90
2024-02-29T03:02:08.242Z,4.90
2024-02-29T03:04:35.135Z,4.90
2024-02-29T03:07:01.960Z,4.90
2024-02-29T03:09:28.812Z,4.80
2024-02-29T03:11:55.937Z,4.90
2024-02-29T03:14:22.740Z,4.80
2024-02-29T03:16:49.536Z,4.80
2024-02-29T03:19:16.371Z,4.80
2024-02-29T03:21:43.369Z,4.80
2024-02-29T03:24:10.252Z,4.80
2024-02-29T03:26:37.063Z,4.80
2024-02-29T03:29:03.927Z,4.90
2024-02-29T03:31:30.716Z,4.90
2024-02-29T03:33:57.798Z,4.90
2024-02-29T03:36:24.639Z,4.90
2024-02-29T03:38:51.456Z,4.90
2024-02-29T03:41:18.282Z,4.90
2024-02-29T03:43:45.099Z,4.90
2024-02-29T03:46:12.118Z,4.90
2024-02-29T03:48:39.405Z,4.80
2024-02-29T03:51:06.301Z,4.90
2024-02-29T03:53:33.152Z,4.90
2024-02-29T03:55:59.971Z,4.80
2024-02-29T03:58:26.782Z,4.80
2024-02-29T04:00:53.948Z,4.70
2024-02-29T04:03:20.753Z,4.70
2024-02-29T04:05:47.665Z,4.70
2024-02-29T04:08:15.018Z,4.70
2024-02-29T04:10:45.768Z,4.70
2024-02-29T04:13:12.713Z,4.70
2024-02-29T04:15:39.562Z,4.70
2024-02-29T04:18:06.595Z,4.60
2024-02-29T04:20:33.504Z,4.70
2024-02-29T04:23:00.379Z,4.70
2024-02-29T04:25:27.935Z,4.60
2024-02-29T04:27:54.864Z,4.60
2024-02-29T04:30:21.745Z,4.60
2024-02-29T04:32:48.603Z,4.60
2024-02-29T04:35:15.440Z,4.70
2024-02-29T04:37:42.342Z,4.60
2024-02-29T04:40:11.766Z,4.60
2024-02-29T04:42:41.688Z,4.60
2024-02-29T04:45:09.096Z,4.60
2024-02-29T04:47:36.117Z,4.60
2024-02-29T04:50:05.520Z,4.60
2024-02-29T04:52:32.617Z,4.60
2024-02-29T04:54:59.908Z,4.60
2024-02-29T04:57:27.078Z,4.60
2024-02-29T04:59:54.042Z,4.60
2024-02-29T05:02:20.838Z,4.60
2024-02-29T05:04:47.617Z,4.60
2024-02-29T05:07:14.464Z,4.60
2024-02-29T05:09:41.409Z,4.60
2024-02-29T05:12:08.411Z,4.60
2024-02-29T05:14:35.272Z,4.60
2024-02-29T05:17:02.205Z,4.60
2024-02-29T05:19:29.080Z,4.70
2024-02-29T05:21:56.730Z,4.70
2024-02-29T05:24:23.833Z,4.70
2024-02-29T05:26:50.644Z,4.70
2024-02-29T05:29:17.724Z,4.70
2024-02-29T05:31:53.704Z,4.70
2024-02-29T05:34:24.857Z,4.70
2024-02-29T05:36:51.937Z,4.70
2024-02-29T05:39:19.233Z,4.70
2024-02-29T05:41:46.035Z,4.70
2024-02-29T05:44:12.860Z,4.80
2024-02-29T05:46:39.697Z,4.80
2024-02-29T05:49:06.696Z,4.80
2024-02-29T05:51:33.610Z,4.80
2024-02-29T05:54:00.506Z,4.80
2024-02-29T05:56:27.959Z,4.80
2024-02-29T05:58:54.792Z,4.80
2024-02-29T06:01:21.713Z,4.80
2024-02-29T06:03:48.652Z,4.80
2024-02-29T06:06:18.279Z,4.80
2024-02-29T06:08:45.083Z,4.80
2024-02-29T06:11:15.458Z,4.80
2024-02-29T06:13:42.582Z,4.80
2024-02-29T06:16:11.879Z,4.70
2024-02-29T06:18:38.814Z,4.80
2024-02-29T06:21:05.981Z,4.70
2024-02-29T06:23:32.820Z,4.80
2024-02-29T06:25:59.654Z,4.70
2024-02-29T06:28:26.489Z,4.70
2024-02-29T06:30:54.687Z,4.80
2024-02-29T06:33:21.524Z,4.80
2024-02-29T06:35:48.333Z,4.80
2024-02-29T06:38:16.072Z,4.80
2024-02-29T06:40:42.975Z,4.80
2024-02-29T06:43:09.889Z,4.90
2024-02-29T06:45:37.061Z,4.90
2024-02-29T06:48:05.157Z,4.90
2024-02-29T06:50:32.055Z,4.90
2024-02-29T06:52:58.848Z,5.00
2024-02-29T06:55:25.685Z,5.00
2024-02-29T06:57:52.546Z,5.10
2024-02-29T07:00:19.772Z,5.10
2024-02-29T07:02:46.638Z,5.20
2024-02-29T07:05:13.480Z,5.20
2024-02-29T07:07:40.352Z,5.30
2024-02-29T07:10:08.927Z,5.30
2024-02-29T07:12:35.899Z,5.30
2024-02-29T07:15:03.514Z,5.40
2024-02-29T07:17:30.578Z,5.40
2024-02-29T07:19:57.451Z,5.50
2024-02-29T07:22:24.742Z,5.60
2024-02-29T07:24:51.696Z,5.70
2024-02-29T07:27:18.505Z,5.70
2024-02-29T07:29:45.403Z,5.80
2024-02-29T07:32:12.231Z,5.90
2024-02-29T07:34:39.113Z,6.00
2024-02-29T07:37:06.209Z,6.00
2024-02-29T07:39:33.164Z,6.10
2024-02-29T07:42:00.069Z,6.10
2024-02-29T07:44:26.948Z,6.10
2024-02-29T07:46:53.868Z,6.20
2024-02-29T07:49:20.768Z,6.30
2024-02-29T07:51:47.709Z,6.40
2024-02-29T07:54:14.582Z,6.50
2024-02-29T07:56:42.261Z,6.50
2024-02-29T07:59:09.239Z,6.60
2024-02-29T08:01:36.746Z,6.70
2024-02-29T08:04:04.013Z,6.80
2024-02-29T08:06:31.040Z,6.90
2024-02-29T08:08:57.910Z,7.10
2024-02-29T08:11:26.981Z,7.20
2024-02-29T08:13:54.572Z,7.30
2024-02-29T08:16:21.601Z,7.50
2024-02-29T08:18:48.585Z,7.50
2024-02-29T08:21:15.732Z,7.70
2024-02-29T08:23:42.534Z,7.80
2024-02-29T08:26:10.416Z,7.80
2024-02-29T08:28:38.827Z,8.00
2024-02-29T08:31:08.743Z,8.10
2024-02-29T08:33:35.637Z,8.20
2024-02-29T08:36:03.715Z,8.20
2024-02-29T08:38:30.555Z,8.30
2024-02-29T08:40:57.349Z,8.30
2024-02-29T08:43:24.379Z,8.40
2024-02-29T08:45:53.141Z,8.50
2024-02-29T08:48:19.973Z,8.60
2024-02-29T08:50:46.768Z,8.60
2024-02-29T08:53:14.411Z,8.70
2024-02-29T08:55:41.248Z,8.80
2024-02-29T08:58:08.246Z,8.90
2024-02-29T09:00:36.414Z,9.00
2024-02-29T09:03:04.211Z,9.10
2024-02-29T09:05:30.992Z,9.30
2024-02-29T09:07:58.032Z,9.50
2024-02-29T09:10:25.692Z,9.60
2024-02-29T09:12:52.688Z,9.80
2024-02-29T09:15:19.626Z,10.00
2024-02-29T09:17:46.475Z,10.20
2024-02-29T09:20:13.434Z,10.30
2024-02-29T09:22:40.309Z,10.40
2024-02-29T09:25:07.790Z,10.60
2024-02-29T09:27:34.652Z,10.70
2024-02-29T09:30:01.682Z,10.70
2024-02-29T09:32:28.756Z,10.90
2024-02-29T09:34:55.597Z,10.90
2024-02-29T09:37:22.872Z,10.80
2024-02-29T09:39:49.736Z,10.80
2024-02-29T09:42:17.032Z,10.70
2024-02-29T09:44:44.370Z,10.60
2024-02-29T09:47:13.841Z,10.60
2024-02-29T09:49:41.968Z,10.90
2024-02-29T09:52:09.507Z,11.20
2024-02-29T09:54:39.427Z,11.80
2024-02-29T09:57:12.536Z,12.20
2024-02-29T09:59:42.972Z,12.10
2024-02-29T10:02:17.206Z,12.00
2024-02-29T10:04:44.835Z,12.10
2024-02-29T10:07:11.714Z,12.00
2024-02-29T10:09:38.931Z,12.10
2024-02-29T10:12:06.432Z,12.20
2024-02-29T10:14:33.306Z,12.10
2024-02-29T10:17:00.113Z,12.10
2024-02-29T10:19:27.420Z,12.20
2024-02-29T10:21:54.613Z,12.10
2024-02-29T10:24:25.221Z,11.90
2024-02-29T10:26:52.105Z,11.70
2024-02-29T10:29:19.149Z,11.60
2024-02-29T10:31:46.079Z,11.50
2024-02-29T10:34:14.179Z,11.60
2024-02-29T10:36:41.315Z,11.70
2024-02-29T10:39:09.793Z,11.70
2024-02-29T10:41:39.801Z,11.70
2024-02-29T10:44:10.073Z,11.70
2024-02-29T10:46:41.037Z,11.60
2024-02-29T10:49:15.207Z,11.70
2024-02-29T10:51:53.257Z,11.70
2024-02-29T10:54:21.656Z,11.70
2024-02-29T10:56:50.184Z,11.60
2024-02-29T10:59:19.111Z,11.60
2024-02-29T11:01:47.695Z,11.60
2024-02-29T11:04:15.758Z,11.60
2024-02-29T11:06:49.721Z,11.70
2024-02-29T11:09:18.390Z,11.70
2024-02-29T11:11:46.814Z,11.70
2024-02-29T11:14:16.473Z,11.70
2024-02-29T11:16:44.917Z,11.80
2024-02-29T11:19:19.151Z,11.80
2024-02-29T11:21:46.820Z,11.80
2024-02-29T11:24:22.976Z,11.80
2024-02-29T11:26:57.095Z,11.80
2024-02-29T11:29:25.248Z,11.90
2024-02-29T11:31:56.694Z,11.80
2024-02-29T11:34:23.733Z,11.80
2024-02-29T11:36:51.737Z,11.70
2024-02-29T11:39:22.023Z,11.70
2024-02-29T11:41:50.073Z,11.90
2024-02-29T11:44:17.236Z,12.00
2024-02-29T11:46:48.281Z,12.00
2024-02-29T11:49:18.896Z,12.10
2024-02-29T11:51:46.266Z,12.10
2024-02-29T11:54:16.836Z,12.20
2024-02-29T11:56:43.962Z,12.20
2024-02-29T11:59:12.118Z,12.30
2024-02-29T12:01:39.544Z,12.40
2024-02-29T12:04:06.527Z,12.40
2024-02-29T12:06:35.342Z,12.40
2024-02-29T12:09:02.683Z,12.40
2024-02-29T12:11:30.608Z,12.50
2024-02-29T12:13:57.698Z,12.40
2024-02-29T12:16:25.040Z,12.30
2024-02-29T12:18:52.059Z,12.30
2024-02-29T12:21:19.095Z,12.30
2024-02-29T12:23:46.271Z,12.30
2024-02-29T12:26:14.760Z,12.20
2024-02-29T12:28:41.852Z,12.10
2024-02-29T12:31:10.225Z,12.10
2024-02-29T12:33:42.442Z,12.10
2024-02-29T12:36:12.281Z,12.30
2024-02-29T12:38:41.026Z,12.40
2024-02-29T12:41:08.169Z,12.50
2024-02-29T12:43:37.971Z,12.70
2024-02-29T12:46:05.202Z,12.80
2024-02-29T12:48:32.116Z,12.90
2024-02-29T12:50:58.920Z,13.10
2024-02-29T12:53:26.017Z,13.00
2024-02-29T12:55:53.275Z,12.90
2024-02-29T12:58:20.225Z,12.90
2024-02-29T13:00:47.241Z,12.90
2024-02-29T13:03:14.175Z,13.00
2024-02-29T13:05:41.376Z,13.00
2024-02-29T13:08:12.132Z,12.90
2024-02-29T13:10:38.958Z,13.00
2024-02-29T13:13:10.417Z,13.00
2024-02-29T13:15:38.296Z,13.10
2024-02-29T13:18:05.473Z,13.20
2024-02-29T13:20:32.326Z,13.30
2024-02-29T13:22:59.348Z,13.40
2024-02-29T13:25:26.577Z,13.20
2024-02-29T13:27:53.840Z,13.20
2024-02-29T13:30:20.781Z,13.10
2024-02-29T13:32:47.626Z,13.00
2024-02-29T13:35:14.595Z,13.00
2024-02-29T13:37:42.343Z,13.10
2024-02-29T13:40:09.820Z,13.00
2024-02-29T13:42:36.719Z,13.10
2024-02-29T13:45:03.826Z,13.10
2024-02-29T13:47:30.845Z,13.10
2024-02-29T13:49:57.782Z,13.10
2024-02-29T13:52:24.710Z,13.20
2024-02-29T13:54:52.376Z,13.10
2024-02-29T13:57:19.363Z,13.10
2024-02-29T13:59:46.275Z,13.00
2024-02-29T14:02:13.489Z,13.00
2024-02-29T14:04:40.404Z,13.00
2024-02-29T14:07:08.259Z,12.90
2024-02-29T14:09:35.453Z,12.90
2024-02-29T14:12:02.472Z,12.90
2024-02-29T14:14:29.320Z,12.90
2024-02-29T14:16:56.143Z,12.90
2024-02-29T14:19:23.008Z,12.80
2024-02-29T14:21:49.926Z,12.80
2024-02-29T14:24:16.747Z,12.70
2024-02-29T14:26:43.712Z,12.70
2024-02-29T14:29:10.511Z,12.80
2024-02-29T14:31:37.436Z,12.70
2024-02-29T14:34:04.393Z,12.70
2024-02-29T14:36:31.245Z,12.70
2024-02-29T14:38:58.237Z,12.70
2024-02-29T14:41:27.529Z,12.70
2024-02-29T14:43:54.429Z,12.70
2024-02-29T14:46:21.365Z,12.70
2024-02-29T14:48:48.384Z,12.70
2024-02-29T14:51:15.277Z,12.70
2024-02-29T14:53:43.698Z,12.80
2024-02-29T14:56:10.648Z,12.80
2024-02-29T14:58:37.623Z,12.70
2024-02-29T15:01:04.911Z,12.80
2024-02-29T15:03:32.259Z,12.80
2024-02-29T15:05:59.267Z,12.80
2024-02-29T15:08:26.148Z,12.90
2024-02-29T15:10:53.586Z,12.90
2024-02-29T15:13:20.664Z,12.90
2024-02-29T15:15:47.600Z,12.80
2024-02-29T15:18:14.631Z,12.70
2024-02-29T15:20:42.461Z,12.70
2024-02-29T15:23:09.540Z,12.60
2024-02-29T15:25:38.069Z,12.50
2024-02-29T15:28:10.953Z,12.50
2024-02-29T15:30:37.986Z,12.50
2024-02-29T15:33:05.313Z,12.40
2024-02-29T15:35:32.139Z,12.40
2024-02-29T15:37:59.323Z,12.40
2024-02-29T15:40:26.219Z,12.50
2024-02-29T15:42:53.167Z,12.50
2024-02-29T15:45:20.135Z,12.50
2024-02-29T15:47:47.303Z,12.40
2024-02-29T15:50:14.312Z,12.40
2024-02-29T15:52:41.205Z,12.40
2024-02-29T15:55:08.275Z,12.40
2024-02-29T15:57:35.350Z,12.40
2024-02-29T16:00:03.066Z,12.40
2024-02-29T16:02:39.407Z,12.30
2024-02-29T16:05:06.600Z,12.30
2024-02-29T16:07:33.488Z,12.30
2024-02-29T16:10:00.411Z,12.30
2024-02-29T16:12:27.553Z,12.20
2024-02-29T16:14:54.532Z,12.20
2024-02-29T16:17:21.346Z,12.20
2024-02-29T16:19:50.058Z,12.10
2024-02-29T16:22:17.222Z,12.10
2024-02-29T16:24:44.160Z,12.10
2024-02-29T16:27:11.088Z,12.10
2024-02-29T16:29:37.959Z,12.10
2024-02-29T16:32:05.187Z,12.10
2024-02-29T16:34:33.810Z,12.00
2024-02-29T16:37:00.996Z,12.00
2024-02-29T16:39:27.817Z,12.00
2024-02-29T16:41:54.684Z,12.00
2024-02-29T16:44:24.218Z,11.90
2024-02-29T16:46:51.072Z,11.80
2024-02-29T16:49:18.112Z,11.80
2024-02-29T16:51:45.190Z,11.80
2024-02-29T16:54:13.503Z,11.80
2024-02-29T16:56:43.695Z,11.70
2024-02-29T16:59:11.919Z,11.60
2024-02-29T17:01:40.661Z,11.60
2024-02-29T17:04:08.271Z,11.50
2024-02-29T17:06:36.451Z,11.50
2024-02-29T17:09:04.471Z,11.40
2024-02-29T17:11:31.340Z,11.40
2024-02-29T17:13:58.210Z,11.40
2024-02-29T17:16:25.144Z,11.30
2024-02-29T17:18:52.284Z,11.20
2024-02-29T17:21:21.189Z,11.20
2024-02-29T17:23:48.020Z,11.20
2024-02-29T17:26:20.035Z,11.10
2024-02-29T17:28:52.344Z,11.10
2024-02-29T17:31:20.993Z,11.10
2024-02-29T17:33:48.622Z,11.10
2024-02-29T17:36:18.334Z,11.10
2024-02-29T17:38:45.416Z,11.00
2024-02-29T17:41:12.719Z,11.00
2024-02-29T17:43:42.534Z,11.00
2024-02-29T17:46:09.483Z,11.00
2024-02-29T17:48:36.525Z,10.90
2024-02-29T17:51:04.972Z,10.90
2024-02-29T17:53:33.037Z,10.90
2024-02-29T17:56:00.253Z,10.90
2024-02-29T17:58:27.192Z,10.90
2024-02-29T18:00:55.903Z,10.80
2024-02-29T18:03:23.173Z,10.80
2024-02-29T18:05:50.075Z,10.80
2024-02-29T18:08:17.012Z,10.70
2024-02-29T18:10:44.181Z,10.70
2024-02-29T18:13:11.240Z,10.70
2024-02-29T18:15:38.175Z,10.60
2024-02-29T18:18:05.210Z,10.60
2024-02-29T18:20:32.534Z,10.60
2024-02-29T18:22:59.424Z,10.50
2024-02-29T18:25:28.987Z,10.50
2024-02-29T18:27:55.971Z,10.40
2024-02-29T18:30:23.127Z,10.40
2024-02-29T18:32:49.998Z,10.40
2024-02-29T18:35:16.834Z,10.40
2024-02-29T18:37:43.643Z,10.30
2024-02-29T18:40:13.752Z,10.20
2024-02-29T18:42:40.997Z,10.20
2024-02-29T18:45:08.554Z,10.20
2024-02-29T18:47:35.801Z,10.20
2024-02-29T18:50:03.789Z,10.10
2024-02-29T18:52:30.848Z,10.10
2024-02-29T18:54:57.823Z,10.00
2024-02-29T18:57:24.689Z,10.00
2024-02-29T18:59:51.493Z,9.90
2024-02-29T19:02:18.363Z,9.80
2024-02-29T19:04:45.222Z,9.80
2024-02-29T19:07:12.085Z,9.80
2024-02-29T19:09:38.972Z,9.70
2024-02-29T19:12:07.138Z,9.70
2024-02-29T19:14:33.983Z,9.70
2024-02-29T19:17:00.801Z,9.60
2024-02-29T19:19:28.488Z,9.60
2024-02-29T19:21:55.407Z,9.60
2024-02-29T19:24:22.294Z,9.50
2024-02-29T19:26:49.119Z,9.50
2024-02-29T19:29:16.034Z,9.50
2024-02-29T19:31:42.892Z,9.50
2024-02-29T19:34:09.753Z,9.40
2024-02-29T19:36:36.613Z,9.40
2024-02-29T19:39:04.096Z,9.40
2024-02-29T19:41:30.929Z,9.30
2024-02-29T19:43:57.938Z,9.30
2024-02-29T19:46:24.908Z,9.30
2024-02-29T19:48:54.240Z,9.30
2024-02-29T19:51:21.085Z,9.20
2024-02-29T19:53:47.906Z,9.20
2024-02-29T19:56:15.007Z,9.10
2024-02-29T19:58:41.835Z,9.10
2024-02-29T20:01:08.783Z,9.10
2024-02-29T20:03:35.662Z,9.10
2024-02-29T20:06:02.529Z,9.10
2024-02-29T20:08:29.312Z,9.10
2024-02-29T20:10:56.473Z,9.00
2024-02-29T20:13:25.521Z,9.00
2024-02-29T20:15:52.579Z,9.00
2024-02-29T20:18:20.303Z,9.00
2024-02-29T20:20:47.199Z,9.00
2024-02-29T20:23:14.724Z,8.90
2024-02-29T20:25:44.367Z,8.90
2024-02-29T20:28:11.329Z,8.90
2024-02-29T20:30:39.064Z,8.90
2024-02-29T20:33:06.565Z,8.90
2024-02-29T20:35:33.351Z,8.90
2024-02-29T20:38:00.290Z,8.90
2024-02-29T20:40:29.976Z,8.80
2024-02-29T20:42:56.852Z,8.80
2024-02-29T20:45:25.269Z,8.80
2024-02-29T20:47:52.147Z,8.80
2024-02-29T20:50:19.030Z,8.80
2024-02-29T20:52:47.641Z,8.70
2024-02-29T20:55:14.845Z,8.70
2024-02-29T20:57:41.703Z,8.70
2024-02-29T21:00:10.614Z,8.70
2024-02-29T21:02:38.033Z,8.70
2024-02-29T21:05:05.522Z,8.70
2024-02-29T21:07:33.601Z,8.70
2024-02-29T21:10:00.939Z,8.70
2024-02-29T21:12:27.906Z,8.70
2024-02-29T21:14:54.709Z,8.70
2024-02-29T21:17:24.695Z,8.70
2024-02-29T21:19:51.631Z,8.70
2024-02-29T21:22:19.055Z,8.60
2024-02-29T21:24:46.069Z,8.60
2024-02-29T21:27:13.080Z,8.70
2024-02-29T21:29:41.996Z,8.70
2024-02-29T21:32:10.301Z,8.70
2024-02-29T21:34:37.271Z,8.70
2024-02-29T21:37:04.342Z,8.70
2024-02-29T21:39:36.623Z,8.70
2024-02-29T21:42:10.525Z,8.60
2024-02-29T21:44:37.392Z,8.60
2024-02-29T21:47:04.400Z,8.60
2024-02-29T21:49:31.289Z,8.60
2024-02-29T21:51:58.299Z,8.50
2024-02-29T21:54:25.230Z,8.50
2024-02-29T21:56:53.330Z,8.40
2024-02-29T21:59:20.276Z,8.40
2024-02-29T22:01:47.707Z,8.40
2024-02-29T22:04:14.940Z,8.40
2024-02-29T22:06:45.308Z,8.40
2024-02-29T22:09:12.217Z,8.40
2024-02-29T22:11:39.078Z,8.40
2024-02-29T22:14:06.285Z,8.30
2024-02-29T22:16:33.867Z,8.40
2024-02-29T22:19:01.672Z,8.40
2024-02-29T22:21:29.581Z,8.30
2024-02-29T22:23:58.374Z,8.30
2024-02-29T22:26:25.398Z,8.30
2024-02-29T22:28:52.899Z,8.30
2024-02-29T22:31:20.063Z,8.30
2024-02-29T22:33:47.034Z,8.30
2024-02-29T22:36:14.353Z,8.30
2024-02-29T22:38:41.286Z,8.30
2024-02-29T22:41:08.281Z,8.30
2024-02-29T22:43:35.509Z,8.30
2024-02-29T22:46:02.565Z,8.30
2024-02-29T22:48:29.463Z,8.30
2024-02-29T22:50:56.298Z,8.30
2024-02-29T22:53:23.259Z,8.30
2024-02-29T22:55:51.532Z,8.30
2024-02-29T22:58:20.274Z,8.20
2024-02-29T23:00:53.392Z,8.20
2024-02-29T23:03:23.831Z,8.20
2024-02-29T23:05:50.887Z,8.20
2024-02-29T23:08:18.146Z,8.20
2024-02-29T23:10:45.046Z,8.10
2024-02-29T23:13:13.041Z,8.20
2024-02-29T23:15:40.075Z,8.20
2024-02-29T23:18:07.497Z,8.20
2024-02-29T23:20:34.557Z,8.20
2024-02-29T23:23:01.939Z,8.20
2024-02-29T23:25:30.437Z,8.20
2024-02-29T23:27:57.522Z,8.10
2024-02-29T23:30:24.720Z,8.20
2024-02-29T23:32:52.069Z,8.20
2024-02-29T23:35:19.300Z,8.10
2024-02-29T23:37:46.506Z,8.10
2024-02-29T23:40:16.688Z,8.10
2024-02-29T23:42:44.356Z,8.10
2024-02-29T23:45:11.573Z,8.10
2024-02-29T23:47:38.626Z,8.10
2024-02-29T23:50:06.838Z,8.10
2024-02-29T23:52:34.123Z,8.00
2024-02-29T23:55:01.191Z,8.00
2024-02-29T23:57:28.055Z,7.90
2024-02-29T23:59:54.896Z,7.90
